logo dgac
Viernes 01 de Julio del 2022
Buscar por aerodromo o helipuerto
Ingrese nombre de aeródromo, localidad o designador OACI:
TAF: TAF SCQP 010440Z 0106/0206 34015KT 9999 -RA OVC020 TN08/0106Z TX10/0119Z BECMG 0109/0111 31015KT -SHRA BKN030 BECMG 0114/0116 26008KT BECMG 0123/0201 01008KT NSW SCT030
TAF del 01/07/2022 a las 04:40 UTC
Para mayor información visite www.meteochile.cl
Período de validez: desde el 01 a las 06:00 UTC hasta el 02 a las 06:00 UTC
Viento: dirección 340 grados, velocidad 15 nudos
Visibilidad: 10 km o más
Débil Lluvia
Nubes: Cubierto a 2000 pies sobre el nivel del aeródromo
Temperatura mínima: 8ºC el 01 a las 06:00 UTC
Temperatura máxima: 10ºC el 01 a las 19:00 UTC
Se espera un cambio entre las 09:00 UTC del 01 y las 11:00 UTC del 01, :
Viento: dirección 310 grados, velocidad 15 nudos
Débil ChubascosLluvia
Nubes: Nublado a 3000 pies sobre el nivel del aeródromo
Se espera un cambio entre las 14:00 UTC del 01 y las 16:00 UTC del 01, :
Viento: dirección 260 grados, velocidad 8 nudos
Se espera un cambio entre las 23:00 UTC del 01 y las 01:00 UTC del 02, :
Viento: dirección 010 grados, velocidad 8 nudos
No significant weather phenomena are observed at present
Nubes: Nubosidad parcial a 3000 pies sobre el nivel del aeródromo